Time;durP1;ratioP1;P1;durP2;ratioP2;P2;SDS_P1;SDS_P2;PMS_P1;PMS_P2;Temp;Humidity;BMP_temperature;BMP_pressure;BME280_temperature;BME280_humidity;BME280_pressure;Samples;Min_cycle;Max_cycle;Signal;HPM_P1;HPM_P2
2023/11/21 00:00:12;;;;;;;5.50;5.00;;;;;;;9.76;100.00;100947.34;6103108;28;20231;-71
2023/11/21 00:03:33;;;;;;;6.27;5.67;;;;;;;9.67;100.00;100945.41;6101885;28;20239;-69
2023/11/21 00:06:55;;;;;;;4.77;4.20;;;;;;;9.70;100.00;100936.22;6091623;28;20239;-71
2023/11/21 00:10:17;;;;;;;4.97;4.47;;;;;;;9.53;100.00;100943.84;6105194;28;20235;-71
2023/11/21 00:13:38;;;;;;;4.17;3.50;;;;;;;9.54;100.00;100960.84;6107774;28;20236;-70
2023/11/21 00:17:00;;;;;;;5.30;4.80;;;;;;;9.50;100.00;100962.09;6104953;28;20248;-71
2023/11/21 00:20:21;;;;;;;4.57;3.93;;;;;;;9.38;100.00;100968.50;6096738;28;20232;-70
2023/11/21 00:23:42;;;;;;;4.83;4.10;;;;;;;9.26;100.00;100970.34;6089095;28;20236;-70
2023/11/21 00:27:04;;;;;;;4.23;3.93;;;;;;;9.30;100.00;100971.84;6095409;28;20255;-71
2023/11/21 00:30:26;;;;;;;4.87;3.73;;;;;;;9.27;100.00;100972.06;6104044;28;20558;-71
2023/11/21 00:33:47;;;;;;;4.97;4.47;;;;;;;9.33;100.00;100979.63;6111044;28;20235;-71
2023/11/21 00:37:08;;;;;;;4.47;3.83;;;;;;;9.36;100.00;100986.59;6107575;28;20239;-71
2023/11/21 00:40:29;;;;;;;5.27;4.77;;;;;;;9.23;100.00;100992.13;6116463;28;20245;-71
2023/11/21 00:43:51;;;;;;;4.97;4.57;;;;;;;9.25;100.00;100995.56;6110200;28;20236;-70
2023/11/21 00:47:13;;;;;;;4.70;4.33;;;;;;;9.29;100.00;100991.63;6107402;28;20231;-71
2023/11/21 00:50:34;;;;;;;5.07;4.57;;;;;;;9.35;100.00;101001.03;6112879;28;20248;-72
2023/11/21 00:53:55;;;;;;;7.60;4.83;;;;;;;9.20;100.00;101008.50;6110734;28;20232;-72
2023/11/21 00:57:16;;;;;;;9.03;5.87;;;;;;;9.06;100.00;101011.47;6105372;28;20236;-71
2023/11/21 01:00:40;;;;;;;7.17;6.57;;;;;;;9.02;100.00;101019.88;6108575;28;20327;-71
2023/11/21 01:04:01;;;;;;;8.00;7.30;;;;;;;9.06;100.00;101032.09;6108254;28;20244;-71
2023/11/21 01:07:22;;;;;;;7.93;7.13;;;;;;;8.94;100.00;101035.78;6109216;28;20617;-72
2023/11/21 01:10:43;;;;;;;9.93;7.97;;;;;;;8.91;100.00;101052.19;6105707;28;21097;-71
2023/11/21 01:14:04;;;;;;;10.90;8.53;;;;;;;8.90;100.00;101051.31;6113129;28;20673;-71
2023/11/21 01:17:27;;;;;;;9.77;8.77;;;;;;;8.90;100.00;101056.69;6120310;28;20653;-72
2023/11/21 01:20:48;;;;;;;8.43;6.60;;;;;;;8.93;100.00;101066.34;6109427;28;20622;-72
2023/11/21 01:24:10;;;;;;;6.87;6.13;;;;;;;8.79;100.00;101068.28;6102715;28;20232;-71
2023/11/21 01:27:31;;;;;;;7.27;6.57;;;;;;;8.78;100.00;101071.09;6107273;28;20250;-70
2023/11/21 01:30:56;;;;;;;10.63;7.40;;;;;;;8.88;100.00;101081.97;6109926;28;20248;-71
2023/11/21 01:34:18;;;;;;;9.70;8.20;;;;;;;8.75;100.00;101076.69;6107963;28;20243;-71
2023/11/21 01:37:39;;;;;;;7.87;6.40;;;;;;;8.80;100.00;101079.91;6104938;28;20265;-71
2023/11/21 01:41:00;;;;;;;8.67;6.73;;;;;;;8.57;100.00;101078.97;6104550;28;20235;-72
2023/11/21 01:44:24;;;;;;;7.07;6.37;;;;;;;8.69;100.00;101082.56;6107941;28;20243;-71
2023/11/21 01:47:46;;;;;;;7.90;6.40;;;;;;;8.79;100.00;101096.97;6107488;28;20232;-70
2023/11/21 01:51:09;;;;;;;7.90;7.13;;;;;;;8.78;100.00;101089.91;6108138;28;20322;-71
2023/11/21 01:54:31;;;;;;;6.20;5.60;;;;;;;8.82;100.00;101088.69;6115675;28;20240;-70
2023/11/21 01:57:51;;;;;;;8.13;5.30;;;;;;;8.58;100.00;101098.63;6121011;28;20239;-71
2023/11/21 02:01:14;;;;;;;6.57;5.07;;;;;;;8.62;100.00;101105.50;6104451;28;20318;-71
2023/11/21 02:04:36;;;;;;;5.53;5.07;;;;;;;8.57;100.00;101099.63;6108224;28;20231;-70
2023/11/21 02:08:00;;;;;;;5.43;4.97;;;;;;;8.42;100.00;101112.41;6099516;28;20243;-70
2023/11/21 02:11:21;;;;;;;3.97;3.67;;;;;;;8.56;100.00;101119.41;6107229;28;20243;-71
2023/11/21 02:14:42;;;;;;;5.03;3.93;;;;;;;8.65;100.00;101121.38;6118994;28;20231;-70
2023/11/21 02:18:03;;;;;;;4.67;3.47;;;;;;;8.35;100.00;101116.53;6097249;28;20243;-71
2023/11/21 02:21:25;;;;;;;4.00;3.70;;;;;;;8.45;100.00;101125.59;6100423;28;20235;-70
2023/11/21 02:24:51;;;;;;;3.80;3.47;;;;;;;8.47;100.00;101126.31;6104118;28;20235;-71
2023/11/21 02:28:15;;;;;;;6.30;4.63;;;;;;;8.44;100.00;101128.41;6102154;28;20333;-70
2023/11/21 02:31:37;;;;;;;4.27;3.87;;;;;;;8.13;100.00;101145.94;6106205;28;20261;-71
2023/11/21 02:35:00;;;;;;;4.50;4.10;;;;;;;8.29;100.00;101145.66;6105122;28;20335;-71
2023/11/21 02:38:21;;;;;;;5.00;3.80;;;;;;;8.16;100.00;101153.75;6102879;28;20267;-72
2023/11/21 02:41:44;;;;;;;3.97;2.93;;;;;;;8.23;100.00;101152.31;6100335;28;20503;-70
2023/11/21 02:45:07;;;;;;;5.20;4.73;;;;;;;8.42;100.00;101157.22;6104329;28;20784;-72
2023/11/21 02:48:28;;;;;;;4.20;3.80;;;;;;;8.33;100.00;101164.13;6108301;28;20236;-71
2023/11/21 02:51:49;;;;;;;4.70;4.27;;;;;;;8.33;100.00;101168.63;6100964;28;20243;-71
2023/11/21 02:55:17;;;;;;;4.73;4.33;;;;;;;8.41;100.00;101177.84;6096963;28;20235;-72
2023/11/21 02:58:44;;;;;;;5.00;3.90;;;;;;;8.42;100.00;101174.19;6119132;28;20223;-71
2023/11/21 03:02:08;;;;;;;4.23;3.53;;;;;;;8.44;100.00;101174.06;6107122;28;20232;-71
2023/11/21 03:05:29;;;;;;;4.43;4.07;;;;;;;8.52;100.00;101171.66;6103698;28;20243;-71
2023/11/21 03:08:50;;;;;;;5.13;3.77;;;;;;;8.50;100.00;101168.22;6107809;28;20260;-71
2023/11/21 03:12:14;;;;;;;4.73;4.33;;;;;;;8.48;100.00;101183.59;6101973;28;20311;-70
2023/11/21 03:15:36;;;;;;;6.17;4.50;;;;;;;8.50;100.00;101181.66;6110205;28;20256;-71
2023/11/21 03:18:57;;;;;;;5.43;3.47;;;;;;;8.44;100.00;101190.19;6111378;28;20232;-72
2023/11/21 03:22:18;;;;;;;4.17;3.87;;;;;;;8.35;100.00;101185.50;6107578;28;21077;-71
2023/11/21 03:25:39;;;;;;;4.87;4.50;;;;;;;8.28;100.00;101195.00;6120058;28;20598;-71
2023/11/21 03:29:00;;;;;;;4.60;4.13;;;;;;;8.21;100.00;101207.97;6110262;28;20224;-71
2023/11/21 03:32:23;;;;;;;4.70;4.30;;;;;;;8.18;100.00;101204.69;6103593;28;20231;-70
2023/11/21 03:35:44;;;;;;;4.13;3.83;;;;;;;8.13;100.00;101210.38;6109875;28;20611;-71
2023/11/21 03:39:06;;;;;;;4.03;3.73;;;;;;;8.11;100.00;101211.44;6119989;28;20228;-71
2023/11/21 03:42:27;;;;;;;5.27;4.37;;;;;;;8.03;100.00;101223.59;6123665;28;20264;-71
2023/11/21 03:45:48;;;;;;;4.40;4.03;;;;;;;8.16;100.00;101234.31;6110710;28;20601;-71
2023/11/21 03:49:10;;;;;;;4.77;4.37;;;;;;;8.22;100.00;101230.34;6106548;28;20236;-71
2023/11/21 03:52:31;;;;;;;4.60;4.07;;;;;;;8.33;100.00;101239.34;6105696;28;20627;-71
2023/11/21 03:55:54;;;;;;;4.80;4.37;;;;;;;8.35;100.00;101240.06;6106927;28;20231;-71
2023/11/21 03:59:15;;;;;;;4.23;3.63;;;;;;;8.35;100.00;101249.97;6110502;28;20240;-71
2023/11/21 04:02:36;;;;;;;4.13;3.83;;;;;;;8.36;100.00;101257.06;6106245;28;20368;-70
2023/11/21 04:05:59;;;;;;;4.67;4.17;;;;;;;8.34;100.00;101265.25;6112419;28;20255;-71
2023/11/21 04:09:20;;;;;;;6.87;5.67;;;;;;;8.28;100.00;101270.19;6110793;28;20608;-72
2023/11/21 04:12:41;;;;;;;4.67;3.60;;;;;;;8.30;100.00;101268.25;6111073;28;20228;-71
2023/11/21 04:16:03;;;;;;;4.60;3.77;;;;;;;8.34;100.00;101278.66;6109920;28;20251;-71
2023/11/21 04:19:24;;;;;;;4.20;3.87;;;;;;;8.33;100.00;101279.63;6109138;28;20232;-71
2023/11/21 04:22:46;;;;;;;4.73;4.20;;;;;;;8.37;100.00;101285.63;6109515;28;20228;-71
2023/11/21 04:26:07;;;;;;;5.30;4.57;;;;;;;8.39;100.00;101283.69;6109394;28;20239;-70
2023/11/21 04:29:28;;;;;;;5.20;4.27;;;;;;;8.34;100.00;101289.41;6111663;28;20617;-70
2023/11/21 04:32:50;;;;;;;4.37;3.97;;;;;;;8.41;100.00;101298.72;6113026;28;20717;-70
2023/11/21 04:36:11;;;;;;;5.00;4.67;;;;;;;8.45;100.00;101308.28;6108299;28;20236;-70
2023/11/21 04:39:34;;;;;;;6.23;5.23;;;;;;;8.36;100.00;101310.78;6108758;28;20227;-71
2023/11/21 04:42:56;;;;;;;4.03;3.70;;;;;;;8.39;100.00;101310.53;6117635;28;20236;-70
2023/11/21 04:46:17;;;;;;;4.57;4.17;;;;;;;8.28;100.00;101310.47;6107887;28;20243;-71
2023/11/21 04:49:38;;;;;;;5.30;4.67;;;;;;;8.26;100.00;101321.31;6109028;28;20252;-70
2023/11/21 04:52:59;;;;;;;5.13;4.47;;;;;;;8.32;100.00;101320.03;6109723;28;20224;-71
2023/11/21 04:56:24;;;;;;;7.93;7.13;;;;;;;8.03;100.00;101317.56;6105417;28;20231;-71
2023/11/21 04:59:47;;;;;;;5.83;5.33;;;;;;;7.99;100.00;101328.63;6112435;28;20649;-70
2023/11/21 05:03:08;;;;;;;5.77;5.27;;;;;;;8.06;100.00;101333.47;6112796;28;20573;-70
2023/11/21 05:06:29;;;;;;;4.77;4.30;;;;;;;8.18;100.00;101339.78;6107488;28;20260;-71
2023/11/21 05:09:50;;;;;;;4.97;4.57;;;;;;;8.26;100.00;101341.97;6107140;28;20236;-71
2023/11/21 05:13:13;;;;;;;10.20;9.17;;;;;;;8.26;100.00;101348.16;6103756;28;20235;-70
2023/11/21 05:16:35;;;;;;;16.70;14.90;;;;;;;8.21;100.00;101349.44;6107673;28;20228;-71
2023/11/21 05:19:56;;;;;;;8.23;7.47;;;;;;;8.14;100.00;101361.59;6109002;28;20231;-71
2023/11/21 05:23:17;;;;;;;5.37;4.87;;;;;;;8.18;100.00;101357.75;6110689;28;20235;-70
2023/11/21 05:26:38;;;;;;;4.03;3.73;;;;;;;8.21;100.00;101357.50;6095312;28;20236;-70
2023/11/21 05:30:02;;;;;;;4.07;3.77;;;;;;;8.21;100.00;101373.63;6111384;28;20235;-71
2023/11/21 05:33:23;;;;;;;3.97;3.57;;;;;;;8.12;100.00;101369.75;6109712;28;20244;-70
2023/11/21 05:36:45;;;;;;;4.00;3.70;;;;;;;8.04;100.00;101374.81;6106887;28;20234;-71
2023/11/21 05:40:08;;;;;;;7.20;4.67;;;;;;;8.11;100.00;101380.59;6105619;28;20835;-71
2023/11/21 05:43:30;;;;;;;4.17;3.63;;;;;;;8.12;100.00;101385.88;6108787;28;20228;-71
2023/11/21 05:46:52;;;;;;;4.77;4.40;;;;;;;8.13;100.00;101386.72;6096151;28;20518;-70
2023/11/21 05:50:16;;;;;;;5.73;5.23;;;;;;;8.00;100.00;101392.97;6105318;28;20431;-71
2023/11/21 05:53:37;;;;;;;4.67;4.17;;;;;;;8.00;100.00;101394.78;6111209;28;20239;-71
2023/11/21 05:57:00;;;;;;;4.70;4.30;;;;;;;7.85;100.00;101412.81;6103287;28;20240;-70
2023/11/21 06:00:21;;;;;;;4.17;3.77;;;;;;;7.94;100.00;101409.50;6102890;28;20601;-71
2023/11/21 06:03:43;;;;;;;5.10;4.60;;;;;;;8.00;100.00;101422.50;6104842;28;20255;-71
2023/11/21 06:07:04;;;;;;;6.43;5.83;;;;;;;8.06;100.00;101422.06;6116013;28;20239;-70
2023/11/21 06:10:26;;;;;;;5.97;4.87;;;;;;;8.12;100.00;101428.81;6104593;28;20231;-70
2023/11/21 06:13:47;;;;;;;5.53;5.07;;;;;;;8.22;100.00;101432.56;6107210;28;20258;-71
2023/11/21 06:17:09;;;;;;;4.70;4.30;;;;;;;8.26;100.00;101449.41;6098924;28;20232;-71
2023/11/21 06:20:31;;;;;;;5.37;4.07;;;;;;;8.30;100.00;101453.59;6111376;28;20251;-70
2023/11/21 06:23:52;;;;;;;5.10;4.60;;;;;;;8.30;100.00;101459.81;6106859;28;20643;-71
2023/11/21 06:27:13;;;;;;;5.30;4.80;;;;;;;8.30;100.00;101465.19;6108482;28;20231;-71
2023/11/21 06:30:34;;;;;;;5.00;4.43;;;;;;;8.26;100.00;101465.50;6107743;28;20243;-71
2023/11/21 06:33:55;;;;;;;6.07;5.13;;;;;;;8.33;100.00;101470.34;6109047;28;20526;-72
2023/11/21 06:37:17;;;;;;;5.00;4.50;;;;;;;8.34;100.00;101468.50;6092640;28;20243;-72
2023/11/21 06:40:38;;;;;;;5.93;5.40;;;;;;;8.35;100.00;101476.47;6105885;28;20251;-71
2023/11/21 06:43:59;;;;;;;4.93;3.73;;;;;;;8.36;100.00;101486.25;6111838;28;20649;-71
2023/11/21 06:47:21;;;;;;;6.53;4.83;;;;;;;8.36;100.00;101494.31;6107370;28;20227;-71
2023/11/21 06:50:42;;;;;;;5.13;4.73;;;;;;;8.30;100.00;101501.94;6118179;28;20236;-71
2023/11/21 06:54:04;;;;;;;4.40;4.00;;;;;;;8.30;100.00;101494.75;6112250;28;20232;-71
2023/11/21 06:57:25;;;;;;;10.27;9.13;;;;;;;8.36;100.00;101505.06;6109449;28;20239;-71
2023/11/21 07:00:48;;;;;;;16.27;14.67;;;;;;;8.35;100.00;101505.13;6104185;28;20231;-71
2023/11/21 07:04:09;;;;;;;9.20;8.30;;;;;;;8.34;100.00;101520.41;6110315;28;20228;-71
2023/11/21 07:07:30;;;;;;;6.30;5.73;;;;;;;8.34;100.00;101523.09;6106518;28;20236;-70
2023/11/21 07:10:52;;;;;;;5.17;4.67;;;;;;;8.35;100.00;101519.44;6094469;28;20242;-71
2023/11/21 07:14:15;;;;;;;5.93;4.90;;;;;;;8.34;100.00;101530.31;6114172;28;20232;-70
2023/11/21 07:17:38;;;;;;;5.33;4.80;;;;;;;8.29;100.00;101540.50;6092029;28;20236;-70
2023/11/21 07:20:59;;;;;;;3.57;3.27;;;;;;;8.35;100.00;101549.00;6102268;28;20331;-71
2023/11/21 07:24:19;;;;;;;5.53;4.47;;;;;;;8.31;100.00;101558.22;6096676;28;20243;-72
2023/11/21 07:27:42;;;;;;;3.83;3.53;;;;;;;8.36;100.00;101565.97;6100492;28;20240;-69
2023/11/21 07:31:03;;;;;;;6.30;5.67;;;;;;;8.43;100.00;101570.81;6092787;28;21166;-70
2023/11/21 07:34:27;;;;;;;5.10;4.27;;;;;;;8.43;100.00;101573.50;6089691;28;20231;-70
2023/11/21 07:37:48;;;;;;;5.07;3.90;;;;;;;8.40;100.00;101578.22;6099491;28;20618;-70
2023/11/21 07:41:09;;;;;;;5.10;4.70;;;;;;;8.36;100.00;101579.41;6104348;28;20625;-70
2023/11/21 07:44:32;;;;;;;3.87;3.57;;;;;;;8.42;100.00;101587.03;6104122;28;20232;-71
2023/11/21 07:47:52;;;;;;;4.30;3.93;;;;;;;8.43;100.00;101594.13;6106587;28;20255;-70
2023/11/21 07:51:13;;;;;;;4.30;3.90;;;;;;;8.52;100.00;101596.19;6102577;28;20626;-70
2023/11/21 07:54:35;;;;;;;5.43;4.57;;;;;;;8.44;100.00;101596.72;6104781;28;20829;-70
2023/11/21 07:57:56;;;;;;;3.50;3.20;;;;;;;8.34;100.00;101594.75;6093689;28;20648;-70
2023/11/21 08:01:19;;;;;;;4.77;3.93;;;;;;;8.43;100.00;101603.03;6102672;28;20236;-71
2023/11/21 08:04:42;;;;;;;4.87;3.90;;;;;;;8.41;100.00;101610.34;6114683;28;20595;-70
2023/11/21 08:08:03;;;;;;;4.33;3.93;;;;;;;8.44;100.00;101614.66;6111111;28;20244;-73
2023/11/21 08:11:26;;;;;;;4.87;3.97;;;;;;;8.42;100.00;101617.47;6111681;28;20231;-73
2023/11/21 08:14:47;;;;;;;5.60;4.93;;;;;;;8.55;100.00;101617.50;6111644;28;20772;-71
2023/11/21 08:18:10;;;;;;;4.63;4.23;;;;;;;8.55;100.00;101628.25;6112528;28;20231;-69
2023/11/21 08:21:31;;;;;;;4.87;4.33;;;;;;;8.58;100.00;101628.00;6106271;28;20324;-70
2023/11/21 08:24:51;;;;;;;4.27;3.97;;;;;;;8.59;100.00;101625.25;6109324;28;20240;-70
2023/11/21 08:28:14;;;;;;;4.90;3.83;;;;;;;8.73;100.00;101640.41;6114019;28;20236;-70
2023/11/21 08:31:34;;;;;;;4.53;3.97;;;;;;;8.81;100.00;101644.28;6107807;28;20568;-71
2023/11/21 08:34:57;;;;;;;3.63;3.33;;;;;;;8.86;100.00;101646.66;6113005;28;20232;-72
2023/11/21 08:38:18;;;;;;;3.50;3.20;;;;;;;8.81;100.00;101649.66;6113921;28;20237;-71
2023/11/21 08:41:39;;;;;;;5.03;2.97;;;;;;;8.80;100.00;101649.78;6099851;28;20606;-69
2023/11/21 08:45:02;;;;;;;5.97;3.90;;;;;;;8.76;100.00;101664.41;6108252;28;20236;-71
2023/11/21 08:48:23;;;;;;;3.00;2.70;;;;;;;8.71;100.00;101671.91;6103727;28;20236;-69
2023/11/21 08:51:46;;;;;;;2.77;2.57;;;;;;;8.71;100.00;101671.91;6108103;28;20350;-69
2023/11/21 08:55:08;;;;;;;4.43;4.03;;;;;;;8.52;100.00;101683.03;6111316;28;20319;-70
2023/11/21 08:58:29;;;;;;;3.13;2.93;;;;;;;8.46;100.00;101686.16;6107260;28;20235;-68
2023/11/21 09:01:50;;;;;;;5.90;4.50;;;;;;;8.59;100.00;101696.94;6092554;28;20351;-69
2023/11/21 09:05:13;;;;;;;3.73;3.43;;;;;;;8.54;100.00;101707.13;6105223;28;20232;-70
2023/11/21 09:08:35;;;;;;;3.87;3.37;;;;;;;8.51;100.00;101708.16;6115690;28;20239;-70
2023/11/21 09:11:56;;;;;;;3.30;3.00;;;;;;;8.53;100.00;101710.78;6112006;28;20344;-69
2023/11/21 09:15:17;;;;;;;2.97;2.30;;;;;;;8.52;100.00;101711.72;6112408;28;20239;-70
2023/11/21 09:18:38;;;;;;;3.23;2.70;;;;;;;8.48;100.00;101716.47;6115752;28;20379;-71
2023/11/21 09:22:00;;;;;;;3.37;2.67;;;;;;;8.62;100.00;101731.66;6102588;28;22184;-70
2023/11/21 09:25:22;;;;;;;3.63;3.33;;;;;;;8.61;100.00;101735.31;6107197;28;20236;-69
2023/11/21 09:28:46;;;;;;;2.73;2.50;;;;;;;8.55;100.00;101743.78;6109020;28;20232;-74
2023/11/21 09:32:08;;;;;;;4.73;3.47;;;;;;;8.57;100.00;101749.91;6107670;28;20263;-75
2023/11/21 09:35:28;;;;;;;3.70;2.50;;;;;;;8.59;100.00;101748.00;6107903;28;20259;-73
2023/11/21 09:38:50;;;;;;;4.57;3.47;;;;;;;8.56;100.00;101750.88;6110534;28;20236;-70
2023/11/21 09:42:16;;;;;;;3.60;3.30;;;;;;;8.49;100.00;101750.41;6106198;28;20703;-72
2023/11/21 09:45:39;;;;;;;7.23;4.23;;;;;;;8.65;100.00;101755.66;6125249;28;22059;-69
2023/11/21 09:49:04;;;;;;;2.40;2.20;;;;;;;8.67;100.00;101757.28;6116083;28;20228;-75
2023/11/21 09:52:27;;;;;;;3.60;3.30;;;;;;;8.68;100.00;101776.91;6097868;28;20820;-73
2023/11/21 09:55:50;;;;;;;3.43;3.13;;;;;;;8.64;100.00;101775.41;6109253;28;20657;-70
2023/11/21 09:59:16;;;;;;;2.50;2.30;;;;;;;8.73;100.00;101777.50;6105048;28;20256;-71
2023/11/21 10:02:38;;;;;;;2.47;2.27;;;;;;;8.70;100.00;101777.69;6110196;28;20231;-70
2023/11/21 10:06:00;;;;;;;2.73;2.53;;;;;;;8.86;100.00;101790.00;6107312;28;20243;-70
2023/11/21 10:09:22;;;;;;;3.47;2.73;;;;;;;9.01;100.00;101792.63;6111402;28;20249;-70
2023/11/21 10:12:44;;;;;;;3.77;1.80;;;;;;;8.93;100.00;101789.63;6108726;28;20318;-70
2023/11/21 10:16:11;;;;;;;2.97;2.63;;;;;;;9.10;100.00;101792.00;6111992;28;20224;-72
2023/11/21 10:19:33;;;;;;;2.23;2.00;;;;;;;9.25;100.00;101793.66;6114859;28;20484;-70
2023/11/21 10:22:54;;;;;;;2.60;2.40;;;;;;;9.36;100.00;101797.34;6110514;28;20244;-72
2023/11/21 10:26:16;;;;;;;3.33;3.13;;;;;;;9.65;100.00;101789.91;6113545;28;20236;-73
2023/11/21 10:29:36;;;;;;;3.67;2.50;;;;;;;9.98;100.00;101789.34;6126627;28;20227;-74
2023/11/21 10:33:02;;;;;;;3.37;2.60;;;;;;;10.12;100.00;101791.94;6118742;28;20235;-73
2023/11/21 10:36:27;;;;;;;2.23;2.03;;;;;;;10.05;100.00;101799.59;6105939;28;20228;-74
2023/11/21 10:39:48;;;;;;;1.57;1.47;;;;;;;9.81;100.00;101814.78;6124968;28;20239;-71
2023/11/21 10:43:10;;;;;;;2.07;1.60;;;;;;;9.43;100.00;101814.75;6117109;28;20605;-73
2023/11/21 10:46:31;;;;;;;1.80;1.70;;;;;;;9.38;100.00;101825.00;6124209;28;20516;-69
2023/11/21 10:49:54;;;;;;;2.60;2.40;;;;;;;9.36;100.00;101821.56;6113426;28;20248;-70
2023/11/21 10:53:14;;;;;;;1.93;1.70;;;;;;;9.45;100.00;101823.59;6111696;28;20252;-68
2023/11/21 10:56:40;;;;;;;2.63;2.43;;;;;;;9.40;100.00;101830.28;6114183;28;20614;-69
2023/11/21 11:00:03;;;;;;;2.10;2.00;;;;;;;9.34;100.00;101831.56;6108278;28;20592;-72
2023/11/21 11:03:24;;;;;;;1.77;1.67;;;;;;;9.14;100.00;101826.66;6111201;28;21489;-70
2023/11/21 11:06:57;;;;;;;2.93;1.93;;;;;;;8.99;100.00;101826.84;6119471;28;20235;-71
2023/11/21 11:10:20;;;;;;;2.50;2.23;;;;;;;8.76;100.00;101833.75;6113415;28;20247;-70
2023/11/21 11:13:46;;;;;;;4.47;2.60;;;;;;;8.88;100.00;101843.69;6111575;28;20236;-73
2023/11/21 11:17:08;;;;;;;2.43;1.87;;;;;;;8.94;100.00;101847.78;6109577;28;20566;-73
2023/11/21 11:20:35;;;;;;;2.33;2.10;;;;;;;8.80;100.00;101848.72;6113802;28;20240;-69
2023/11/21 11:24:14;;;;;;;2.70;2.50;;;;;;;8.92;100.00;101847.03;6109279;28;20244;-69
2023/11/21 11:27:41;;;;;;;5.30;4.57;;;;;;;8.93;100.00;101843.41;6111701;28;20235;-70
2023/11/21 11:31:13;;;;;;;2.40;2.20;;;;;;;9.04;100.00;101833.63;6111590;28;20232;-71
2023/11/21 11:34:41;;;;;;;2.37;2.27;;;;;;;9.00;100.00;101832.13;6115097;28;20263;-70
2023/11/21 11:38:02;;;;;;;2.33;2.10;;;;;;;9.02;100.00;101846.31;6116404;28;20235;-71
2023/11/21 11:41:29;;;;;;;2.73;2.50;;;;;;;9.12;100.00;101850.09;6108121;28;20244;-73
2023/11/21 11:44:57;;;;;;;2.70;2.00;;;;;;;9.20;100.00;101850.44;6108347;28;20322;-70
2023/11/21 11:48:18;;;;;;;2.83;2.63;;;;;;;9.13;100.00;101856.34;6111874;28;20239;-70
2023/11/21 11:51:41;;;;;;;2.40;2.20;;;;;;;9.21;100.00;101856.69;6109615;28;20247;-71
2023/11/21 11:55:03;;;;;;;2.00;1.90;;;;;;;9.34;100.00;101852.22;6106710;28;20319;-74
2023/11/21 11:58:38;;;;;;;3.07;2.87;;;;;;;9.22;100.00;101855.75;6113377;28;20243;-71
2023/11/21 12:01:59;;;;;;;2.47;2.27;;;;;;;8.98;100.00;101857.38;6111617;28;20235;-70
2023/11/21 12:05:22;;;;;;;1.70;1.60;;;;;;;9.05;100.00;101856.88;6111017;28;20314;-70
2023/11/21 12:08:45;;;;;;;3.40;3.10;;;;;;;9.16;100.00;101854.31;6114120;28;20547;-70
2023/11/21 12:12:07;;;;;;;2.10;2.00;;;;;;;9.13;100.00;101873.38;6111733;28;20227;-69
2023/11/21 12:15:31;;;;;;;1.90;1.60;;;;;;;8.89;100.00;101879.50;6113630;28;20235;-73
2023/11/21 12:18:51;;;;;;;2.67;2.47;;;;;;;8.90;100.00;101876.72;6111500;28;20494;-72
2023/11/21 12:22:13;;;;;;;1.97;1.87;;;;;;;8.84;100.00;101886.03;6104794;28;20537;-69
2023/11/21 12:25:36;;;;;;;2.20;2.10;;;;;;;8.70;100.00;101894.13;6111441;28;20614;-72
2023/11/21 12:28:57;;;;;;;1.63;1.53;;;;;;;8.55;100.00;101903.19;6111466;28;20642;-74
2023/11/21 12:32:20;;;;;;;1.97;1.87;;;;;;;8.53;100.00;101909.63;6115180;28;20593;-72
2023/11/21 12:35:43;;;;;;;1.70;1.60;;;;;;;8.46;100.00;101917.22;6113418;28;20571;-71
2023/11/21 12:39:05;;;;;;;2.43;2.23;;;;;;;8.50;100.00;101917.88;6112995;28;20232;-72
2023/11/21 12:42:26;;;;;;;2.37;2.17;;;;;;;8.51;100.00;101925.84;6111472;28;20239;-70
2023/11/21 12:45:47;;;;;;;2.50;2.30;;;;;;;8.47;100.00;101926.16;6101645;28;20276;-71
2023/11/21 12:49:17;;;;;;;2.63;2.23;;;;;;;8.45;100.00;101923.53;6095058;28;20231;-71
2023/11/21 12:52:39;;;;;;;3.00;2.80;;;;;;;8.47;100.00;101931.53;6105951;28;20235;-69
2023/11/21 12:56:00;;;;;;;1.83;1.73;;;;;;;8.41;100.00;101932.75;6114983;28;20236;-69
2023/11/21 12:59:22;;;;;;;2.37;1.80;;;;;;;8.38;100.00;101946.41;6107587;28;20523;-71
2023/11/21 13:02:43;;;;;;;2.70;2.50;;;;;;;8.34;100.00;101957.44;6110402;28;20252;-71
2023/11/21 13:06:07;;;;;;;1.80;1.70;;;;;;;8.21;100.00;101951.03;6114389;28;20232;-74
2023/11/21 13:09:28;;;;;;;3.77;1.93;;;;;;;8.16;100.00;101956.69;6114861;28;20235;-68
2023/11/21 13:12:51;;;;;;;4.50;3.70;;;;;;;8.25;100.00;101957.94;6105184;28;20240;-72
2023/11/21 13:16:15;;;;;;;2.03;1.93;;;;;;;8.27;100.00;101966.81;6110314;28;21316;-72
2023/11/21 13:19:36;;;;;;;1.77;1.67;;;;;;;8.23;100.00;101965.25;6114967;28;20507;-70
2023/11/21 13:22:59;;;;;;;2.60;2.10;;;;;;;8.29;100.00;101968.44;6115259;28;20263;-70
2023/11/21 13:26:24;;;;;;;2.30;2.20;;;;;;;8.16;100.00;101975.50;6110407;28;20235;-69
2023/11/21 13:29:44;;;;;;;2.27;1.37;;;;;;;8.15;100.00;101984.53;6104157;28;20243;-71
2023/11/21 13:33:06;;;;;;;1.63;1.53;;;;;;;8.18;100.00;101984.31;6110648;28;20247;-71
2023/11/21 13:36:31;;;;;;;2.00;1.80;;;;;;;8.23;100.00;101986.72;6106039;28;20925;-70
2023/11/21 13:39:57;;;;;;;1.93;1.83;;;;;;;8.23;100.00;101992.09;6110953;28;20330;-74
2023/11/21 13:43:21;;;;;;;2.40;2.20;;;;;;;8.22;100.00;101993.91;6105692;28;20443;-72
2023/11/21 13:46:42;;;;;;;3.57;2.17;;;;;;;8.19;100.00;101996.81;6112041;28;20563;-71
2023/11/21 13:50:06;;;;;;;2.33;1.77;;;;;;;8.19;100.00;101999.50;6113294;28;20240;-72
2023/11/21 13:53:27;;;;;;;2.27;1.73;;;;;;;7.99;100.00;102002.50;6111871;28;20243;-75
2023/11/21 13:56:50;;;;;;;1.90;1.80;;;;;;;8.03;100.00;102009.44;6107144;28;20255;-71
2023/11/21 14:00:36;;;;;;;2.00;1.80;;;;;;;8.01;100.00;102017.56;6108771;28;20243;-71
2023/11/21 14:04:00;;;;;;;2.03;1.93;;;;;;;8.00;100.00;102023.03;6105321;28;20267;-71
2023/11/21 14:07:32;;;;;;;1.63;1.53;;;;;;;7.87;100.00;102025.59;6115892;28;20231;-70
2023/11/21 14:10:57;;;;;;;1.57;1.47;;;;;;;7.88;100.00;102026.47;6115359;28;20665;-71
2023/11/21 14:14:20;;;;;;;2.20;2.00;;;;;;;7.75;100.00;102034.38;6115424;28;20240;-71
2023/11/21 14:17:42;;;;;;;2.20;2.10;;;;;;;7.67;100.00;102042.00;6120525;28;20243;-70
2023/11/21 14:21:03;;;;;;;2.10;1.90;;;;;;;7.80;100.00;102043.00;6113639;28;20235;-71
2023/11/21 14:24:25;;;;;;;3.40;1.60;;;;;;;7.82;100.00;102054.50;6114388;28;20224;-71
2023/11/21 14:27:46;;;;;;;3.73;2.43;;;;;;;7.70;100.00;102059.72;6105263;28;20232;-71
2023/11/21 14:31:13;;;;;;;1.47;1.37;;;;;;;7.68;100.00;102070.56;6110698;28;20232;-71
2023/11/21 14:34:34;;;;;;;2.10;2.00;;;;;;;7.66;100.00;102074.28;6120564;28;20236;-71
2023/11/21 14:37:55;;;;;;;1.40;1.30;;;;;;;7.63;100.00;102072.66;6114908;28;20504;-71
2023/11/21 14:41:16;;;;;;;2.80;2.60;;;;;;;7.68;100.00;102075.94;6111762;28;20515;-71
2023/11/21 14:44:41;;;;;;;2.40;2.23;;;;;;;7.60;100.00;102074.63;6110151;28;20243;-72
2023/11/21 14:48:08;;;;;;;2.50;1.20;;;;;;;7.63;100.00;102071.78;6115147;28;20252;-71
2023/11/21 14:51:31;;;;;;;1.97;1.40;;;;;;;7.51;100.00;102084.06;6105337;28;20240;-72
2023/11/21 14:55:00;;;;;;;2.93;2.73;;;;;;;7.57;100.00;102104.34;6110952;28;20587;-71
2023/11/21 14:58:27;;;;;;;2.77;1.83;;;;;;;7.52;100.00;102111.78;6113722;28;20235;-71
2023/11/21 15:01:55;;;;;;;5.80;4.93;;;;;;;7.53;100.00;102114.34;6116809;28;20227;-70
2023/11/21 15:05:18;;;;;;;8.80;7.90;;;;;;;7.59;100.00;102113.16;6108879;28;20232;-72
2023/11/21 15:08:43;;;;;;;3.83;3.53;;;;;;;7.64;100.00;102127.16;6112881;28;20236;-72
2023/11/21 15:12:13;;;;;;;1.93;1.83;;;;;;;7.58;100.00;102138.25;6116103;28;20231;-72
2023/11/21 15:15:36;;;;;;;2.27;1.70;;;;;;;7.51;100.00;102148.47;6117255;28;20609;-70
2023/11/21 15:18:58;;;;;;;1.40;1.30;;;;;;;7.47;100.00;102163.00;6117723;28;20266;-72
2023/11/21 15:22:20;;;;;;;1.90;1.70;;;;;;;7.24;100.00;102158.91;6113505;28;20232;-71
2023/11/21 15:25:41;;;;;;;1.73;1.63;;;;;;;7.08;100.00;102165.19;6116932;28;20231;-71
2023/11/21 15:29:02;;;;;;;1.60;1.27;;;;;;;6.98;100.00;102169.31;6109036;28;20540;-72
2023/11/21 15:32:23;;;;;;;1.50;1.40;;;;;;;7.01;100.00;102171.78;6114551;28;20240;-72
2023/11/21 15:35:44;;;;;;;1.13;1.00;;;;;;;7.02;100.00;102170.88;6117424;28;20232;-72
2023/11/21 15:39:07;;;;;;;1.00;1.00;;;;;;;7.10;100.00;102174.00;6114987;28;20231;-72